createdAt,value
2019-03-27T00:01:01.800Z,0.10
2019-03-27T00:03:29.913Z,0.00
2019-03-27T00:05:57.893Z,0.10
2019-03-27T00:08:25.956Z,0.17
2019-03-27T00:10:53.865Z,0.20
2019-03-27T00:13:21.853Z,0.20
2019-03-27T00:15:49.920Z,0.00
2019-03-27T00:18:18.013Z,0.10
2019-03-27T00:20:45.909Z,0.10
2019-03-27T00:23:13.899Z,0.20
2019-03-27T00:25:41.964Z,0.17
2019-03-27T00:28:10.046Z,0.10
2019-03-27T00:30:38.440Z,0.10
2019-03-27T00:33:06.643Z,0.20
2019-03-27T00:35:35.849Z,0.10
2019-03-27T00:38:03.862Z,0.10
2019-03-27T00:40:31.931Z,0.07
2019-03-27T00:43:00.882Z,0.10
2019-03-27T00:45:28.834Z,0.30
2019-03-27T00:47:56.721Z,0.20
2019-03-27T00:50:24.873Z,0.10
2019-03-27T00:52:52.951Z,0.10
2019-03-27T00:55:21.050Z,0.10
2019-03-27T00:57:49.193Z,0.20
2019-03-27T01:00:25.749Z,0.10
2019-03-27T01:02:53.819Z,0.37
2019-03-27T01:05:22.078Z,0.17
2019-03-27T01:07:50.190Z,0.10
2019-03-27T01:10:18.317Z,0.10
2019-03-27T01:12:46.520Z,0.10
2019-03-27T01:15:14.449Z,0.10
2019-03-27T01:17:42.409Z,0.20
2019-03-27T01:20:10.293Z,0.10
2019-03-27T01:22:38.566Z,0.10
2019-03-27T01:25:06.610Z,0.10
2019-03-27T01:27:35.838Z,0.10
2019-03-27T01:30:04.118Z,0.40
2019-03-27T01:32:32.080Z,0.10
2019-03-27T01:35:00.351Z,0.17
2019-03-27T01:37:28.376Z,0.10
2019-03-27T01:39:56.335Z,0.20
2019-03-27T01:42:24.389Z,0.20
2019-03-27T01:44:52.343Z,0.10
2019-03-27T01:47:20.535Z,0.20
2019-03-27T01:49:48.529Z,0.13
2019-03-27T01:52:16.489Z,0.10
2019-03-27T01:54:44.411Z,0.10
2019-03-27T01:57:12.393Z,0.13
2019-03-27T01:59:40.573Z,0.10
2019-03-27T02:02:08.490Z,0.20
2019-03-27T02:04:36.484Z,0.10
2019-03-27T02:07:04.385Z,0.20
2019-03-27T02:09:32.346Z,0.17
2019-03-27T02:12:00.462Z,0.10
2019-03-27T02:14:28.881Z,0.17
2019-03-27T02:16:57.196Z,0.10
2019-03-27T02:19:25.025Z,0.00
2019-03-27T02:21:53.146Z,0.10
2019-03-27T02:24:21.142Z,0.20
2019-03-27T02:26:50.288Z,0.10
2019-03-27T02:29:18.393Z,0.10
2019-03-27T02:31:46.441Z,0.00
2019-03-27T02:34:14.467Z,0.10
2019-03-27T02:36:42.333Z,0.17
2019-03-27T02:39:10.297Z,0.20
2019-03-27T02:41:40.063Z,0.30
2019-03-27T02:44:08.200Z,0.07
2019-03-27T02:46:36.359Z,0.20
2019-03-27T02:49:04.433Z,0.20
2019-03-27T02:51:32.313Z,0.10
2019-03-27T02:54:00.514Z,0.10
2019-03-27T02:56:28.562Z,0.10
2019-03-27T02:58:56.457Z,0.10
2019-03-27T03:01:24.522Z,0.20
2019-03-27T03:03:52.835Z,0.10
2019-03-27T03:06:21.033Z,0.00
2019-03-27T03:08:49.237Z,0.20
2019-03-27T03:11:17.339Z,0.20
2019-03-27T03:13:46.122Z,0.10
2019-03-27T03:16:16.353Z,0.00
2019-03-27T03:18:44.640Z,0.10
2019-03-27T03:21:12.555Z,0.10
2019-03-27T03:23:40.706Z,0.17
2019-03-27T03:26:08.773Z,0.10
2019-03-27T03:28:36.990Z,0.10
2019-03-27T03:31:05.038Z,0.20
2019-03-27T03:33:33.143Z,0.10
2019-03-27T03:36:01.274Z,0.10
2019-03-27T03:38:29.160Z,0.10
2019-03-27T03:40:57.277Z,0.10
2019-03-27T03:43:25.264Z,0.10
2019-03-27T03:45:53.261Z,0.17
2019-03-27T03:48:21.178Z,0.10
2019-03-27T03:50:49.191Z,0.00
2019-03-27T03:53:17.303Z,0.10
2019-03-27T03:55:45.310Z,0.10
2019-03-27T03:58:14.524Z,0.13
2019-03-27T04:00:42.516Z,0.20
2019-03-27T04:03:10.390Z,0.20
2019-03-27T04:05:38.630Z,0.20
2019-03-27T04:08:06.389Z,0.00
2019-03-27T04:10:34.529Z,0.20
2019-03-27T04:13:02.673Z,0.20
2019-03-27T04:15:30.759Z,0.30
2019-03-27T04:17:58.930Z,0.20
2019-03-27T04:20:26.837Z,0.10
2019-03-27T04:22:54.785Z,0.10
2019-03-27T04:25:22.840Z,0.10
2019-03-27T04:27:50.821Z,0.20
2019-03-27T04:30:20.041Z,0.10
2019-03-27T04:32:47.879Z,0.10
2019-03-27T04:35:15.962Z,0.20
2019-03-27T04:37:44.067Z,0.10
2019-03-27T04:40:12.146Z,0.10
2019-03-27T04:42:40.250Z,0.20
2019-03-27T04:45:08.325Z,0.20
2019-03-27T04:47:36.322Z,0.17
2019-03-27T04:50:04.845Z,0.10
2019-03-27T04:52:32.710Z,0.27
2019-03-27T04:55:00.765Z,0.10
2019-03-27T04:57:29.023Z,0.20
2019-03-27T04:59:57.246Z,0.20
2019-03-27T05:02:25.386Z,0.10
2019-03-27T05:04:53.669Z,0.20
2019-03-27T05:07:21.654Z,0.10
2019-03-27T05:09:49.637Z,0.10
2019-03-27T05:12:17.733Z,0.10
2019-03-27T05:14:45.817Z,0.07
2019-03-27T05:17:13.835Z,0.10
2019-03-27T05:19:42.034Z,0.23
2019-03-27T05:22:09.833Z,0.20
2019-03-27T05:24:39.768Z,0.20
2019-03-27T05:27:07.722Z,0.10
2019-03-27T05:29:35.801Z,0.10
2019-03-27T05:32:03.770Z,0.10
2019-03-27T05:34:31.866Z,0.20
2019-03-27T05:36:59.709Z,0.10
2019-03-27T05:39:28.103Z,0.10
2019-03-27T05:41:56.072Z,0.20
2019-03-27T05:44:23.841Z,0.10
2019-03-27T05:46:51.912Z,0.13
2019-03-27T05:49:19.785Z,0.10
2019-03-27T05:51:47.744Z,0.20
2019-03-27T05:54:15.772Z,0.20
2019-03-27T05:56:43.646Z,0.17
2019-03-27T05:59:11.532Z,0.20
2019-03-27T06:01:41.740Z,0.20
2019-03-27T06:04:09.847Z,0.30
2019-03-27T06:06:39.717Z,0.10
2019-03-27T06:09:08.405Z,0.30
2019-03-27T06:11:36.681Z,0.27
2019-03-27T06:14:04.681Z,0.03
2019-03-27T06:16:32.462Z,0.10
2019-03-27T06:19:00.621Z,0.13
2019-03-27T06:21:28.672Z,0.10
2019-03-27T06:23:56.653Z,0.20
2019-03-27T06:26:24.626Z,0.10
2019-03-27T06:28:52.689Z,0.20
2019-03-27T06:31:20.836Z,0.13
2019-03-27T06:33:48.680Z,0.20
2019-03-27T06:36:16.541Z,0.20
2019-03-27T06:38:44.692Z,0.17
2019-03-27T06:41:12.758Z,0.10
2019-03-27T06:43:40.752Z,0.10
2019-03-27T06:46:08.612Z,0.20
2019-03-27T06:48:36.656Z,0.40
2019-03-27T06:51:04.529Z,0.10
2019-03-27T06:53:32.392Z,0.13
2019-03-27T06:56:00.675Z,0.10
2019-03-27T06:58:28.867Z,0.20
2019-03-27T07:00:57.841Z,0.13
2019-03-27T07:03:26.000Z,0.03
2019-03-27T07:05:54.028Z,0.20
2019-03-27T07:08:22.291Z,0.10
2019-03-27T07:10:50.366Z,0.10
2019-03-27T07:13:18.261Z,0.10
2019-03-27T07:15:46.356Z,0.20
2019-03-27T07:18:14.300Z,0.17
2019-03-27T07:20:42.390Z,0.10
2019-03-27T07:23:10.345Z,0.17
2019-03-27T07:25:38.638Z,0.20
2019-03-27T07:28:06.489Z,0.20
2019-03-27T07:30:34.465Z,0.10
2019-03-27T07:33:02.420Z,0.10
2019-03-27T07:35:31.591Z,0.10
2019-03-27T07:37:59.678Z,0.30
2019-03-27T07:40:27.763Z,0.13
2019-03-27T07:42:55.756Z,0.10
2019-03-27T07:45:23.897Z,0.10
2019-03-27T07:47:51.752Z,0.20
2019-03-27T07:50:19.822Z,0.07
2019-03-27T07:52:47.789Z,0.10
2019-03-27T07:55:19.650Z,0.10
2019-03-27T07:57:45.802Z,0.10
2019-03-27T08:00:14.082Z,0.20
2019-03-27T08:02:42.198Z,0.20
2019-03-27T08:05:10.781Z,0.20
2019-03-27T08:07:39.163Z,0.10
2019-03-27T08:10:07.048Z,0.10
2019-03-27T08:12:35.126Z,0.10
2019-03-27T08:15:03.665Z,0.20
2019-03-27T08:17:31.661Z,0.10
2019-03-27T08:19:59.848Z,0.10
2019-03-27T08:22:28.656Z,0.33
2019-03-27T08:24:56.633Z,0.40
2019-03-27T08:27:24.701Z,0.00
2019-03-27T08:29:52.649Z,0.20
2019-03-27T08:32:20.713Z,0.20
2019-03-27T08:34:48.765Z,0.20
2019-03-27T08:37:16.540Z,0.13
2019-03-27T08:39:44.527Z,0.10
2019-03-27T08:42:12.589Z,0.10
2019-03-27T08:44:40.702Z,0.20
2019-03-27T08:47:08.575Z,0.20
2019-03-27T08:49:36.616Z,0.20
2019-03-27T08:52:04.582Z,0.20
2019-03-27T08:54:32.660Z,0.17
2019-03-27T08:57:00.604Z,0.10
2019-03-27T08:59:28.461Z,0.20
2019-03-27T09:01:59.780Z,0.20
2019-03-27T09:04:27.833Z,0.27
2019-03-27T09:06:56.009Z,0.07
2019-03-27T09:09:25.952Z,0.17
2019-03-27T09:11:53.842Z,0.20
2019-03-27T09:14:22.070Z,0.17
2019-03-27T09:16:50.196Z,0.10
2019-03-27T09:19:36.571Z,0.20
2019-03-27T09:22:05.049Z,0.10
2019-03-27T09:24:33.180Z,0.20
2019-03-27T09:27:02.378Z,0.20
2019-03-27T09:29:30.493Z,0.20
2019-03-27T09:31:58.642Z,0.20
2019-03-27T09:34:26.555Z,0.10
2019-03-27T09:36:54.433Z,0.17
2019-03-27T09:39:22.498Z,0.20
2019-03-27T09:41:50.569Z,0.10
2019-03-27T09:44:18.834Z,0.10
2019-03-27T09:46:47.086Z,0.10
2019-03-27T09:49:15.191Z,0.10
2019-03-27T09:51:44.204Z,0.10
2019-03-27T09:54:13.573Z,0.10
2019-03-27T09:56:41.697Z,0.10
2019-03-27T09:59:09.637Z,0.10
2019-03-27T10:01:37.713Z,0.20
2019-03-27T10:04:05.781Z,0.13
2019-03-27T10:06:33.784Z,0.20
2019-03-27T10:09:01.957Z,0.10
2019-03-27T10:11:32.915Z,0.20
2019-03-27T10:14:01.301Z,0.17
2019-03-27T10:16:29.298Z,0.10
2019-03-27T10:18:57.241Z,0.10
2019-03-27T10:21:25.594Z,0.20
2019-03-27T10:23:53.686Z,0.10
2019-03-27T10:26:22.101Z,0.20
2019-03-27T10:28:50.149Z,0.00
2019-03-27T10:31:18.214Z,0.10
2019-03-27T10:33:46.405Z,0.10
2019-03-27T10:36:14.485Z,0.10
2019-03-27T10:38:42.578Z,0.10
2019-03-27T10:41:10.521Z,0.10
2019-03-27T10:43:38.988Z,0.20
2019-03-27T10:46:07.177Z,0.20
2019-03-27T10:48:35.176Z,0.13
2019-03-27T10:51:03.037Z,0.13
2019-03-27T10:53:32.132Z,0.13
2019-03-27T10:56:00.085Z,0.10
2019-03-27T10:58:28.306Z,0.10
2019-03-27T11:00:56.564Z,0.23
2019-03-27T11:03:24.425Z,0.20
2019-03-27T11:05:52.487Z,0.10
2019-03-27T11:08:20.446Z,0.10
2019-03-27T11:10:48.502Z,0.00
2019-03-27T11:13:16.463Z,0.10
2019-03-27T11:15:44.376Z,0.10
2019-03-27T11:18:12.357Z,0.10
2019-03-27T11:20:40.356Z,0.10
2019-03-27T11:23:10.048Z,0.10
2019-03-27T11:25:38.202Z,0.10
2019-03-27T11:28:06.101Z,0.13
2019-03-27T11:30:35.908Z,0.10
2019-03-27T11:33:04.295Z,0.17
2019-03-27T11:35:32.145Z,0.20
2019-03-27T11:38:00.265Z,0.20
2019-03-27T11:40:30.846Z,0.20
2019-03-27T11:42:58.863Z,0.10
2019-03-27T11:45:27.005Z,0.20
2019-03-27T11:47:55.110Z,0.20
2019-03-27T11:50:23.005Z,0.10
2019-03-27T11:52:50.895Z,0.20
2019-03-27T11:55:20.772Z,0.20
2019-03-27T11:57:53.133Z,0.20
2019-03-27T12:00:23.569Z,0.20
2019-03-27T12:02:53.382Z,0.10
2019-03-27T12:05:23.297Z,0.10
2019-03-27T12:07:53.795Z,0.10
2019-03-27T12:10:22.221Z,0.20
2019-03-27T12:12:50.090Z,0.20
2019-03-27T12:15:45.681Z,0.10
2019-03-27T12:18:14.569Z,0.20
2019-03-27T12:20:42.665Z,0.10
2019-03-27T12:23:10.770Z,0.00
2019-03-27T12:25:38.829Z,0.10
2019-03-27T12:28:06.960Z,0.00
2019-03-27T12:30:34.934Z,0.10
2019-03-27T12:33:02.877Z,0.10
2019-03-27T12:35:30.762Z,0.10
2019-03-27T12:37:58.636Z,0.13
2019-03-27T12:40:26.760Z,0.10
2019-03-27T12:42:54.938Z,0.10
2019-03-27T12:45:23.067Z,0.17
2019-03-27T12:47:51.669Z,0.20
2019-03-27T12:50:19.960Z,0.10
2019-03-27T12:52:48.037Z,0.10
2019-03-27T12:55:16.081Z,0.10
2019-03-27T12:57:44.267Z,0.10
2019-03-27T13:00:42.919Z,0.10
2019-03-27T13:03:10.968Z,0.10
2019-03-27T13:05:39.470Z,0.17
2019-03-27T13:08:07.497Z,0.30
2019-03-27T13:10:35.597Z,0.10
2019-03-27T13:13:03.800Z,0.20
2019-03-27T13:15:31.935Z,0.10
2019-03-27T13:20:49.834Z,0.10
2019-03-27T13:23:17.945Z,0.10
2019-03-27T13:25:46.153Z,0.20
2019-03-27T13:28:14.217Z,0.17
2019-03-27T13:30:42.297Z,0.10
2019-03-27T13:33:10.509Z,0.10
2019-03-27T13:35:38.674Z,0.10
2019-03-27T13:38:06.686Z,0.10
2019-03-27T13:40:34.779Z,0.10
2019-03-27T13:43:02.714Z,0.27
2019-03-27T13:45:30.657Z,0.20
2019-03-27T13:47:59.287Z,0.20
2019-03-27T13:50:28.528Z,0.30
2019-03-27T13:52:58.362Z,0.10
2019-03-27T13:55:26.061Z,0.10
2019-03-27T13:57:56.109Z,0.10
2019-03-27T14:00:24.534Z,0.13
2019-03-27T14:02:52.709Z,0.20
2019-03-27T14:05:20.708Z,0.10
2019-03-27T14:07:48.613Z,0.10
2019-03-27T14:10:16.561Z,0.27
2019-03-27T14:12:45.647Z,0.10
2019-03-27T14:15:13.777Z,0.10
2019-03-27T14:17:41.888Z,0.20
2019-03-27T14:20:09.994Z,0.10
2019-03-27T14:22:39.046Z,0.10
2019-03-27T14:25:07.725Z,0.10
2019-03-27T14:27:35.615Z,0.20
2019-03-27T14:30:06.521Z,0.10
2019-03-27T14:32:34.606Z,0.10
2019-03-27T14:35:02.617Z,0.13
2019-03-27T14:37:30.458Z,0.10
2019-03-27T14:39:58.310Z,0.10
2019-03-27T14:42:26.290Z,0.20
2019-03-27T14:44:54.481Z,0.10
2019-03-27T14:47:22.883Z,0.20
2019-03-27T14:49:51.169Z,0.10
2019-03-27T14:52:19.296Z,0.20
2019-03-27T14:57:58.766Z,0.20
2019-03-27T15:00:27.304Z,0.20
2019-03-27T15:02:55.324Z,0.27
2019-03-27T15:05:23.212Z,0.10
2019-03-27T15:07:51.393Z,0.20
2019-03-27T15:10:19.720Z,0.30
2019-03-27T15:12:47.802Z,0.20
2019-03-27T15:15:15.913Z,0.30
2019-03-27T15:17:43.873Z,0.20
2019-03-27T15:20:11.757Z,0.20
2019-03-27T15:22:40.146Z,0.40
2019-03-27T15:25:08.342Z,0.27
2019-03-27T15:27:36.230Z,0.20
2019-03-27T15:30:06.461Z,0.30
2019-03-27T15:32:34.541Z,0.30
2019-03-27T15:35:02.730Z,0.20
2019-03-27T15:37:30.805Z,0.10
2019-03-27T15:39:58.787Z,0.40
2019-03-27T15:42:27.077Z,0.20
2019-03-27T15:44:55.236Z,0.40
2019-03-27T15:47:23.120Z,0.40
2019-03-27T15:49:51.264Z,0.53
2019-03-27T15:52:19.354Z,0.60
2019-03-27T15:54:47.361Z,0.50
2019-03-27T15:57:15.433Z,0.50
2019-03-27T15:59:43.878Z,0.60
2019-03-27T16:02:12.220Z,0.50
2019-03-27T16:07:22.597Z,0.77
2019-03-27T16:09:51.942Z,0.70
2019-03-27T16:12:20.600Z,0.70
2019-03-27T16:14:48.705Z,0.70
2019-03-27T16:17:16.705Z,0.70
2019-03-27T16:19:44.592Z,0.77
2019-03-27T16:22:12.881Z,0.60
2019-03-27T16:24:40.929Z,0.53
2019-03-27T16:27:09.073Z,0.43
2019-03-27T16:29:38.542Z,0.90
2019-03-27T16:32:06.503Z,0.60
2019-03-27T16:34:35.257Z,0.70
2019-03-27T16:37:03.767Z,0.60
2019-03-27T16:39:31.725Z,2.00
2019-03-27T16:41:59.561Z,1.13
2019-03-27T16:44:27.628Z,1.00
2019-03-27T16:46:55.565Z,0.93
2019-03-27T16:49:23.529Z,1.30
2019-03-27T16:51:51.644Z,2.17
2019-03-27T16:54:21.135Z,1.50
2019-03-27T16:56:50.790Z,1.20
2019-03-27T16:59:20.035Z,1.33
2019-03-27T17:01:48.337Z,1.33
2019-03-27T17:04:16.308Z,1.17
2019-03-27T17:06:44.196Z,1.20
2019-03-27T17:09:12.291Z,1.40
2019-03-27T17:11:41.229Z,1.00
2019-03-27T17:14:09.408Z,1.30
2019-03-27T17:16:37.297Z,1.67
2019-03-27T17:19:05.920Z,2.00
2019-03-27T17:21:34.020Z,1.27
2019-03-27T17:24:01.885Z,1.50
2019-03-27T17:26:30.016Z,2.27
2019-03-27T17:29:01.057Z,1.73
2019-03-27T17:31:29.201Z,1.20
2019-03-27T17:33:57.330Z,1.47
2019-03-27T17:36:25.462Z,1.50
2019-03-27T17:38:53.548Z,1.97
2019-03-27T17:41:21.709Z,1.40
2019-03-27T17:43:49.781Z,1.40
2019-03-27T17:46:18.025Z,1.57
2019-03-27T17:48:46.088Z,1.87
2019-03-27T17:51:14.028Z,1.70
2019-03-27T17:53:42.073Z,1.33
2019-03-27T17:56:10.173Z,1.50
2019-03-27T17:58:38.388Z,1.73
2019-03-27T18:01:06.480Z,1.50
2019-03-27T18:03:34.564Z,1.53
2019-03-27T18:06:02.737Z,1.43
2019-03-27T18:08:30.633Z,1.47
2019-03-27T18:10:59.024Z,1.40
2019-03-27T18:13:29.665Z,2.43
2019-03-27T18:15:58.114Z,1.60
2019-03-27T18:18:26.380Z,1.37
2019-03-27T18:20:57.101Z,1.40
2019-03-27T18:23:26.812Z,1.37
2019-03-27T18:25:58.669Z,2.07
2019-03-27T18:28:29.908Z,2.27
2019-03-27T18:30:58.172Z,1.70
2019-03-27T18:33:27.400Z,1.27
2019-03-27T18:35:55.568Z,1.30
2019-03-27T18:38:23.633Z,1.63
2019-03-27T18:40:51.735Z,1.47
2019-03-27T18:43:19.790Z,1.00
2019-03-27T18:45:47.909Z,1.40
2019-03-27T18:48:16.044Z,1.53
2019-03-27T18:50:44.386Z,1.40
2019-03-27T18:53:12.452Z,1.37
2019-03-27T18:55:40.509Z,1.43
2019-03-27T18:58:08.428Z,1.50
2019-03-27T19:00:36.530Z,1.73
2019-03-27T19:03:04.644Z,1.57
2019-03-27T19:05:32.600Z,1.23
2019-03-27T19:08:00.690Z,1.47
2019-03-27T19:10:31.255Z,1.50
2019-03-27T19:12:59.518Z,1.47
2019-03-27T19:15:27.565Z,1.30
2019-03-27T19:17:55.700Z,1.30
2019-03-27T19:20:23.814Z,1.50
2019-03-27T19:22:51.921Z,1.70
2019-03-27T19:25:19.996Z,2.40
2019-03-27T19:27:48.964Z,1.70
2019-03-27T19:30:16.962Z,1.73
2019-03-27T19:32:45.217Z,1.50
2019-03-27T19:35:13.260Z,1.37
2019-03-27T19:37:41.407Z,1.63
2019-03-27T19:40:09.447Z,1.10
2019-03-27T19:42:39.873Z,1.30
2019-03-27T19:45:09.901Z,1.43
2019-03-27T19:47:41.549Z,1.23
2019-03-27T19:50:10.762Z,1.80
2019-03-27T19:52:40.104Z,1.30
2019-03-27T19:55:08.419Z,1.50
2019-03-27T19:57:36.576Z,1.10
2019-03-27T20:00:17.480Z,1.27
2019-03-27T20:02:47.019Z,1.70
2019-03-27T20:05:15.496Z,1.30
2019-03-27T20:07:43.736Z,1.30
2019-03-27T20:10:12.758Z,1.30
2019-03-27T20:12:41.194Z,1.20
2019-03-27T20:15:12.078Z,1.57
2019-03-27T20:17:39.361Z,1.20
2019-03-27T20:20:08.081Z,1.17
2019-03-27T20:22:36.210Z,1.30
2019-03-27T20:25:05.315Z,1.30
2019-03-27T20:27:33.268Z,1.50
2019-03-27T20:30:01.354Z,1.20
2019-03-27T20:32:29.346Z,1.43
2019-03-27T20:34:57.369Z,1.33
2019-03-27T20:37:25.434Z,1.33
2019-03-27T20:39:53.494Z,1.20
2019-03-27T20:42:21.553Z,1.20
2019-03-27T20:44:49.434Z,1.27
2019-03-27T20:47:17.496Z,1.40
2019-03-27T20:49:45.477Z,1.57
2019-03-27T20:52:13.537Z,1.53
2019-03-27T20:54:53.843Z,1.10
2019-03-27T20:57:11.375Z,1.33
2019-03-27T20:59:39.992Z,1.17
2019-03-27T21:02:08.045Z,1.60
2019-03-27T21:04:37.002Z,1.60
2019-03-27T21:07:05.087Z,1.40
2019-03-27T21:09:35.741Z,1.17
2019-03-27T21:12:03.887Z,1.50
2019-03-27T21:14:31.960Z,1.50
2019-03-27T21:17:00.057Z,1.37
2019-03-27T21:19:28.089Z,1.40
2019-03-27T21:21:56.214Z,1.50
2019-03-27T21:24:24.076Z,1.40
2019-03-27T21:26:52.132Z,1.40
2019-03-27T21:29:20.062Z,1.40
2019-03-27T21:31:48.272Z,0.97
2019-03-27T21:34:16.519Z,1.27
2019-03-27T21:36:44.693Z,1.23
2019-03-27T21:39:13.800Z,1.50
2019-03-27T21:41:41.977Z,1.33
2019-03-27T21:44:10.557Z,1.33
2019-03-27T21:46:39.137Z,1.40
2019-03-27T21:49:07.253Z,1.27
2019-03-27T21:51:35.212Z,1.27
2019-03-27T21:54:03.120Z,1.40
2019-03-27T21:56:31.074Z,1.40
2019-03-27T21:59:02.276Z,1.40
2019-03-27T22:01:28.928Z,1.20
2019-03-27T22:03:57.092Z,1.17
2019-03-27T22:06:25.158Z,1.07
2019-03-27T22:08:53.262Z,1.40
2019-03-27T22:11:21.137Z,1.40
2019-03-27T22:13:49.211Z,1.40
2019-03-27T22:16:17.273Z,1.17
2019-03-27T22:18:45.228Z,1.30
2019-03-27T22:21:13.210Z,1.10
2019-03-27T22:23:41.281Z,0.97
2019-03-27T22:26:09.240Z,1.53
2019-03-27T22:29:48.972Z,1.03
2019-03-27T22:32:16.828Z,1.63
2019-03-27T22:34:44.900Z,1.27
2019-03-27T22:37:12.965Z,1.50
2019-03-27T22:39:41.075Z,0.77
2019-03-27T22:42:09.038Z,1.50
2019-03-27T22:44:37.241Z,1.33
2019-03-27T22:47:05.244Z,1.40
2019-03-27T22:49:33.248Z,1.30
2019-03-27T22:52:01.199Z,1.50
2019-03-27T22:54:29.218Z,1.30
2019-03-27T22:56:57.348Z,1.30
2019-03-27T22:59:25.435Z,1.23
2019-03-27T23:01:53.584Z,1.37
2019-03-27T23:04:21.712Z,1.30
2019-03-27T23:06:49.680Z,1.27
2019-03-27T23:09:17.769Z,1.47
2019-03-27T23:11:47.959Z,1.13
2019-03-27T23:14:15.838Z,1.30
2019-03-27T23:16:43.728Z,0.90
2019-03-27T23:19:11.713Z,1.43
2019-03-27T23:21:39.765Z,1.87
2019-03-27T23:24:07.711Z,1.27
2019-03-27T23:26:35.747Z,1.30
2019-03-27T23:29:03.799Z,1.00
2019-03-27T23:31:31.861Z,1.00
2019-03-27T23:34:00.516Z,1.33
2019-03-27T23:36:28.525Z,1.43
2019-03-27T23:38:56.698Z,1.33
2019-03-27T23:41:24.644Z,1.40
2019-03-27T23:43:52.604Z,1.20
2019-03-27T23:46:20.400Z,1.10
2019-03-27T23:48:48.486Z,1.00
2019-03-27T23:51:16.684Z,1.00
2019-03-27T23:53:44.757Z,1.40
2019-03-27T23:56:16.964Z,0.93
2019-03-27T23:58:42.258Z,1.30
